sensor_id;sensor_type;location;lat;lon;timestamp;P1;durP1;ratioP1;P2;durP2;ratioP2
13051;SDS011;6592;47.484;9.726;2022-09-09T00:02:27;1.92;;;0.90;;
13051;SDS011;6592;47.484;9.726;2022-09-09T00:05:04;2.72;;;1.10;;
13051;SDS011;6592;47.484;9.726;2022-09-09T00:07:51;3.25;;;1.20;;
13051;SDS011;6592;47.484;9.726;2022-09-09T00:10:25;3.17;;;0.90;;
13051;SDS011;6592;47.484;9.726;2022-09-09T00:13:00;3.38;;;1.17;;
13051;SDS011;6592;47.484;9.726;2022-09-09T00:15:36;4.80;;;1.08;;
13051;SDS011;6592;47.484;9.726;2022-09-09T00:18:15;2.53;;;1.08;;
13051;SDS011;6592;47.484;9.726;2022-09-09T00:20:52;3.33;;;1.00;;
13051;SDS011;6592;47.484;9.726;2022-09-09T00:23:27;2.60;;;1.00;;
13051;SDS011;6592;47.484;9.726;2022-09-09T00:26:02;2.60;;;1.08;;
13051;SDS011;6592;47.484;9.726;2022-09-09T00:28:38;1.88;;;0.93;;
13051;SDS011;6592;47.484;9.726;2022-09-09T00:31:16;2.95;;;1.10;;
13051;SDS011;6592;47.484;9.726;2022-09-09T00:33:52;2.63;;;1.13;;
13051;SDS011;6592;47.484;9.726;2022-09-09T00:36:23;5.95;;;1.20;;
13051;SDS011;6592;47.484;9.726;2022-09-09T00:38:59;4.25;;;1.20;;
13051;SDS011;6592;47.484;9.726;2022-09-09T00:41:35;4.57;;;1.25;;
13051;SDS011;6592;47.484;9.726;2022-09-09T00:44:19;3.42;;;1.02;;
13051;SDS011;6592;47.484;9.726;2022-09-09T00:47:06;3.92;;;1.00;;
13051;SDS011;6592;47.484;9.726;2022-09-09T00:49:56;4.53;;;1.00;;
13051;SDS011;6592;47.484;9.726;2022-09-09T00:52:33;2.95;;;1.10;;
13051;SDS011;6592;47.484;9.726;2022-09-09T00:55:10;3.72;;;1.30;;
13051;SDS011;6592;47.484;9.726;2022-09-09T00:57:46;2.83;;;0.90;;
13051;SDS011;6592;47.484;9.726;2022-09-09T01:00:21;2.35;;;0.98;;
13051;SDS011;6592;47.484;9.726;2022-09-09T01:03:10;2.72;;;1.08;;
13051;SDS011;6592;47.484;9.726;2022-09-09T01:06:00;3.47;;;1.00;;
13051;SDS011;6592;47.484;9.726;2022-09-09T01:11:52;2.60;;;1.08;;
13051;SDS011;6592;47.484;9.726;2022-09-09T01:14:35;2.70;;;1.20;;
13051;SDS011;6592;47.484;9.726;2022-09-09T01:17:11;1.48;;;0.80;;
13051;SDS011;6592;47.484;9.726;2022-09-09T01:19:50;2.80;;;1.10;;
13051;SDS011;6592;47.484;9.726;2022-09-09T01:22:32;4.70;;;1.25;;
13051;SDS011;6592;47.484;9.726;2022-09-09T01:25:13;2.85;;;1.02;;
13051;SDS011;6592;47.484;9.726;2022-09-09T01:27:56;7.20;;;1.30;;
13051;SDS011;6592;47.484;9.726;2022-09-09T01:30:28;2.88;;;1.20;;
13051;SDS011;6592;47.484;9.726;2022-09-09T01:32:58;3.28;;;0.95;;
13051;SDS011;6592;47.484;9.726;2022-09-09T01:35:32;2.80;;;1.10;;
13051;SDS011;6592;47.484;9.726;2022-09-09T01:38:08;3.08;;;1.10;;
13051;SDS011;6592;47.484;9.726;2022-09-09T01:40:36;3.20;;;1.10;;
13051;SDS011;6592;47.484;9.726;2022-09-09T01:43:07;4.78;;;1.20;;
13051;SDS011;6592;47.484;9.726;2022-09-09T01:45:37;2.40;;;1.00;;
13051;SDS011;6592;47.484;9.726;2022-09-09T01:48:07;2.45;;;1.13;;
13051;SDS011;6592;47.484;9.726;2022-09-09T01:50:35;4.53;;;1.10;;
13051;SDS011;6592;47.484;9.726;2022-09-09T01:53:04;4.35;;;1.27;;
13051;SDS011;6592;47.484;9.726;2022-09-09T01:55:36;3.15;;;1.10;;
13051;SDS011;6592;47.484;9.726;2022-09-09T01:58:13;2.03;;;0.95;;
13051;SDS011;6592;47.484;9.726;2022-09-09T02:00:50;2.10;;;1.10;;
13051;SDS011;6592;47.484;9.726;2022-09-09T02:03:28;7.53;;;1.48;;
13051;SDS011;6592;47.484;9.726;2022-09-09T02:06:00;2.75;;;1.10;;
13051;SDS011;6592;47.484;9.726;2022-09-09T02:08:40;3.05;;;0.90;;
13051;SDS011;6592;47.484;9.726;2022-09-09T02:11:13;4.00;;;1.48;;
13051;SDS011;6592;47.484;9.726;2022-09-09T02:13:46;4.72;;;1.10;;
13051;SDS011;6592;47.484;9.726;2022-09-09T02:16:17;2.17;;;1.13;;
13051;SDS011;6592;47.484;9.726;2022-09-09T02:18:53;4.15;;;1.10;;
13051;SDS011;6592;47.484;9.726;2022-09-09T02:21:26;2.65;;;1.20;;
13051;SDS011;6592;47.484;9.726;2022-09-09T02:23:58;5.00;;;1.10;;
13051;SDS011;6592;47.484;9.726;2022-09-09T02:26:30;2.70;;;1.15;;
13051;SDS011;6592;47.484;9.726;2022-09-09T02:29:03;2.92;;;1.23;;
13051;SDS011;6592;47.484;9.726;2022-09-09T02:31:35;3.55;;;1.20;;
13051;SDS011;6592;47.484;9.726;2022-09-09T02:34:06;4.05;;;1.20;;
13051;SDS011;6592;47.484;9.726;2022-09-09T02:36:38;5.60;;;1.30;;
13051;SDS011;6592;47.484;9.726;2022-09-09T02:39:10;1.75;;;1.20;;
13051;SDS011;6592;47.484;9.726;2022-09-09T02:41:40;3.90;;;1.10;;
13051;SDS011;6592;47.484;9.726;2022-09-09T02:44:11;3.92;;;1.10;;
13051;SDS011;6592;47.484;9.726;2022-09-09T02:46:47;2.30;;;1.10;;
13051;SDS011;6592;47.484;9.726;2022-09-09T02:49:32;4.82;;;1.55;;
13051;SDS011;6592;47.484;9.726;2022-09-09T02:52:12;4.50;;;1.20;;
13051;SDS011;6592;47.484;9.726;2022-09-09T02:54:45;4.15;;;1.27;;
13051;SDS011;6592;47.484;9.726;2022-09-09T02:57:16;3.33;;;1.20;;
13051;SDS011;6592;47.484;9.726;2022-09-09T02:59:49;3.03;;;1.20;;
13051;SDS011;6592;47.484;9.726;2022-09-09T03:02:19;2.75;;;1.02;;
13051;SDS011;6592;47.484;9.726;2022-09-09T03:04:48;3.97;;;1.20;;
13051;SDS011;6592;47.484;9.726;2022-09-09T03:07:18;3.85;;;1.15;;
13051;SDS011;6592;47.484;9.726;2022-09-09T03:09:47;4.55;;;1.20;;
13051;SDS011;6592;47.484;9.726;2022-09-09T03:12:16;2.50;;;1.00;;
13051;SDS011;6592;47.484;9.726;2022-09-09T03:14:44;2.13;;;1.10;;
13051;SDS011;6592;47.484;9.726;2022-09-09T03:17:15;2.78;;;1.20;;
13051;SDS011;6592;47.484;9.726;2022-09-09T03:19:43;4.47;;;1.20;;
13051;SDS011;6592;47.484;9.726;2022-09-09T03:22:12;2.20;;;1.00;;
13051;SDS011;6592;47.484;9.726;2022-09-09T03:24:42;4.35;;;1.10;;
13051;SDS011;6592;47.484;9.726;2022-09-09T03:27:10;3.13;;;1.15;;
13051;SDS011;6592;47.484;9.726;2022-09-09T03:29:40;4.32;;;1.20;;
13051;SDS011;6592;47.484;9.726;2022-09-09T03:32:09;3.13;;;1.20;;
13051;SDS011;6592;47.484;9.726;2022-09-09T03:34:40;3.55;;;1.15;;
13051;SDS011;6592;47.484;9.726;2022-09-09T03:37:09;2.73;;;1.10;;
13051;SDS011;6592;47.484;9.726;2022-09-09T03:39:38;2.65;;;1.40;;
13051;SDS011;6592;47.484;9.726;2022-09-09T03:42:06;5.32;;;1.40;;
13051;SDS011;6592;47.484;9.726;2022-09-09T03:44:35;3.65;;;1.17;;
13051;SDS011;6592;47.484;9.726;2022-09-09T03:47:04;3.35;;;1.15;;
13051;SDS011;6592;47.484;9.726;2022-09-09T03:49:33;5.63;;;1.25;;
13051;SDS011;6592;47.484;9.726;2022-09-09T03:52:03;3.60;;;1.27;;
13051;SDS011;6592;47.484;9.726;2022-09-09T03:54:32;5.63;;;1.30;;
13051;SDS011;6592;47.484;9.726;2022-09-09T03:57:00;5.00;;;1.30;;
13051;SDS011;6592;47.484;9.726;2022-09-09T03:59:29;3.83;;;1.20;;
13051;SDS011;6592;47.484;9.726;2022-09-09T04:01:57;4.57;;;1.38;;
13051;SDS011;6592;47.484;9.726;2022-09-09T04:04:27;3.25;;;1.10;;
13051;SDS011;6592;47.484;9.726;2022-09-09T04:06:56;3.28;;;1.40;;
13051;SDS011;6592;47.484;9.726;2022-09-09T04:09:26;5.68;;;1.35;;
13051;SDS011;6592;47.484;9.726;2022-09-09T04:11:55;3.05;;;1.20;;
13051;SDS011;6592;47.484;9.726;2022-09-09T04:14:24;3.63;;;1.33;;
13051;SDS011;6592;47.484;9.726;2022-09-09T04:16:54;5.13;;;1.38;;
13051;SDS011;6592;47.484;9.726;2022-09-09T04:19:26;4.97;;;1.40;;
13051;SDS011;6592;47.484;9.726;2022-09-09T04:21:54;5.90;;;1.60;;
13051;SDS011;6592;47.484;9.726;2022-09-09T04:24:23;4.40;;;1.75;;
13051;SDS011;6592;47.484;9.726;2022-09-09T04:26:55;3.00;;;1.48;;
13051;SDS011;6592;47.484;9.726;2022-09-09T04:29:24;3.50;;;1.20;;
13051;SDS011;6592;47.484;9.726;2022-09-09T04:31:52;6.18;;;1.27;;
13051;SDS011;6592;47.484;9.726;2022-09-09T04:34:21;4.65;;;1.15;;
13051;SDS011;6592;47.484;9.726;2022-09-09T04:36:50;2.47;;;1.17;;
13051;SDS011;6592;47.484;9.726;2022-09-09T04:39:19;3.05;;;1.10;;
13051;SDS011;6592;47.484;9.726;2022-09-09T04:41:49;4.88;;;1.20;;
13051;SDS011;6592;47.484;9.726;2022-09-09T04:44:18;2.65;;;0.90;;
13051;SDS011;6592;47.484;9.726;2022-09-09T04:46:47;3.97;;;1.08;;
13051;SDS011;6592;47.484;9.726;2022-09-09T04:49:15;4.00;;;1.00;;
13051;SDS011;6592;47.484;9.726;2022-09-09T04:51:44;2.60;;;0.90;;
13051;SDS011;6592;47.484;9.726;2022-09-09T04:54:13;2.97;;;0.98;;
13051;SDS011;6592;47.484;9.726;2022-09-09T04:56:42;2.58;;;1.08;;
13051;SDS011;6592;47.484;9.726;2022-09-09T04:59:12;3.42;;;0.85;;
13051;SDS011;6592;47.484;9.726;2022-09-09T05:01:40;2.80;;;1.10;;
13051;SDS011;6592;47.484;9.726;2022-09-09T05:04:09;3.08;;;0.98;;
13051;SDS011;6592;47.484;9.726;2022-09-09T05:06:37;3.17;;;1.00;;
13051;SDS011;6592;47.484;9.726;2022-09-09T05:09:06;3.95;;;0.85;;
13051;SDS011;6592;47.484;9.726;2022-09-09T05:11:37;1.98;;;0.90;;
13051;SDS011;6592;47.484;9.726;2022-09-09T05:14:05;3.58;;;1.00;;
13051;SDS011;6592;47.484;9.726;2022-09-09T05:16:35;3.38;;;1.00;;
13051;SDS011;6592;47.484;9.726;2022-09-09T05:19:04;4.15;;;1.10;;
13051;SDS011;6592;47.484;9.726;2022-09-09T05:21:34;4.50;;;1.20;;
13051;SDS011;6592;47.484;9.726;2022-09-09T05:24:03;5.47;;;1.50;;
13051;SDS011;6592;47.484;9.726;2022-09-09T05:26:32;5.78;;;1.50;;
13051;SDS011;6592;47.484;9.726;2022-09-09T05:29:01;5.45;;;1.33;;
13051;SDS011;6592;47.484;9.726;2022-09-09T05:31:30;4.97;;;1.50;;
13051;SDS011;6592;47.484;9.726;2022-09-09T05:34:01;7.20;;;1.70;;
13051;SDS011;6592;47.484;9.726;2022-09-09T05:36:29;2.75;;;1.23;;
13051;SDS011;6592;47.484;9.726;2022-09-09T05:38:59;2.97;;;1.13;;
13051;SDS011;6592;47.484;9.726;2022-09-09T05:41:28;3.15;;;1.30;;
13051;SDS011;6592;47.484;9.726;2022-09-09T05:43:58;5.20;;;1.42;;
13051;SDS011;6592;47.484;9.726;2022-09-09T05:46:27;6.22;;;1.50;;
13051;SDS011;6592;47.484;9.726;2022-09-09T05:48:57;6.55;;;1.30;;
13051;SDS011;6592;47.484;9.726;2022-09-09T05:51:27;6.50;;;1.30;;
13051;SDS011;6592;47.484;9.726;2022-09-09T05:53:57;3.78;;;1.20;;
13051;SDS011;6592;47.484;9.726;2022-09-09T05:56:27;6.63;;;1.48;;
13051;SDS011;6592;47.484;9.726;2022-09-09T05:58:56;4.22;;;1.38;;
13051;SDS011;6592;47.484;9.726;2022-09-09T06:01:27;5.07;;;1.30;;
13051;SDS011;6592;47.484;9.726;2022-09-09T06:03:57;5.65;;;1.50;;
13051;SDS011;6592;47.484;9.726;2022-09-09T06:06:30;7.00;;;1.40;;
13051;SDS011;6592;47.484;9.726;2022-09-09T06:09:03;3.10;;;1.40;;
13051;SDS011;6592;47.484;9.726;2022-09-09T06:11:36;7.63;;;1.50;;
13051;SDS011;6592;47.484;9.726;2022-09-09T06:14:06;6.88;;;1.60;;
13051;SDS011;6592;47.484;9.726;2022-09-09T06:16:36;5.25;;;1.27;;
13051;SDS011;6592;47.484;9.726;2022-09-09T06:19:05;7.55;;;1.58;;
13051;SDS011;6592;47.484;9.726;2022-09-09T06:21:36;3.95;;;1.45;;
13051;SDS011;6592;47.484;9.726;2022-09-09T06:24:05;5.53;;;1.80;;
13051;SDS011;6592;47.484;9.726;2022-09-09T06:26:35;7.40;;;1.70;;
13051;SDS011;6592;47.484;9.726;2022-09-09T06:29:07;5.85;;;1.50;;
13051;SDS011;6592;47.484;9.726;2022-09-09T06:31:38;3.97;;;1.40;;
13051;SDS011;6592;47.484;9.726;2022-09-09T06:34:08;3.00;;;1.50;;
13051;SDS011;6592;47.484;9.726;2022-09-09T06:36:38;4.00;;;1.58;;
13051;SDS011;6592;47.484;9.726;2022-09-09T06:39:07;5.88;;;1.40;;
13051;SDS011;6592;47.484;9.726;2022-09-09T06:41:40;4.75;;;1.35;;
13051;SDS011;6592;47.484;9.726;2022-09-09T06:44:13;4.43;;;1.30;;
13051;SDS011;6592;47.484;9.726;2022-09-09T06:46:43;6.03;;;1.52;;
13051;SDS011;6592;47.484;9.726;2022-09-09T06:49:14;5.20;;;1.45;;
13051;SDS011;6592;47.484;9.726;2022-09-09T06:51:44;5.78;;;1.55;;
13051;SDS011;6592;47.484;9.726;2022-09-09T06:54:13;3.97;;;1.25;;
13051;SDS011;6592;47.484;9.726;2022-09-09T06:56:42;2.85;;;1.50;;
13051;SDS011;6592;47.484;9.726;2022-09-09T06:59:11;4.13;;;1.58;;
13051;SDS011;6592;47.484;9.726;2022-09-09T07:01:40;5.10;;;1.48;;
13051;SDS011;6592;47.484;9.726;2022-09-09T07:04:10;7.65;;;1.70;;
13051;SDS011;6592;47.484;9.726;2022-09-09T07:06:40;5.55;;;1.60;;
13051;SDS011;6592;47.484;9.726;2022-09-09T07:09:13;8.90;;;1.73;;
13051;SDS011;6592;47.484;9.726;2022-09-09T07:11:43;4.95;;;1.60;;
13051;SDS011;6592;47.484;9.726;2022-09-09T07:14:13;5.85;;;1.70;;
13051;SDS011;6592;47.484;9.726;2022-09-09T07:16:43;6.82;;;1.80;;
13051;SDS011;6592;47.484;9.726;2022-09-09T07:19:13;7.20;;;1.77;;
13051;SDS011;6592;47.484;9.726;2022-09-09T07:21:43;3.65;;;1.60;;
13051;SDS011;6592;47.484;9.726;2022-09-09T07:24:13;6.35;;;1.63;;
13051;SDS011;6592;47.484;9.726;2022-09-09T07:26:43;6.07;;;1.70;;
13051;SDS011;6592;47.484;9.726;2022-09-09T07:29:12;4.75;;;1.73;;
13051;SDS011;6592;47.484;9.726;2022-09-09T07:31:47;4.57;;;1.65;;
13051;SDS011;6592;47.484;9.726;2022-09-09T07:34:16;3.67;;;1.63;;
13051;SDS011;6592;47.484;9.726;2022-09-09T07:36:45;5.63;;;1.55;;
13051;SDS011;6592;47.484;9.726;2022-09-09T07:39:17;4.35;;;1.38;;
13051;SDS011;6592;47.484;9.726;2022-09-09T07:41:46;3.92;;;1.40;;
13051;SDS011;6592;47.484;9.726;2022-09-09T07:44:16;3.90;;;1.13;;
13051;SDS011;6592;47.484;9.726;2022-09-09T07:46:48;4.13;;;1.25;;
13051;SDS011;6592;47.484;9.726;2022-09-09T07:49:16;4.55;;;1.45;;
13051;SDS011;6592;47.484;9.726;2022-09-09T07:51:55;4.32;;;1.75;;
13051;SDS011;6592;47.484;9.726;2022-09-09T07:54:25;5.07;;;1.70;;
13051;SDS011;6592;47.484;9.726;2022-09-09T07:56:54;4.57;;;1.73;;
13051;SDS011;6592;47.484;9.726;2022-09-09T07:59:22;5.05;;;1.85;;
13051;SDS011;6592;47.484;9.726;2022-09-09T08:01:52;4.00;;;1.60;;
13051;SDS011;6592;47.484;9.726;2022-09-09T08:04:21;5.55;;;1.52;;
13051;SDS011;6592;47.484;9.726;2022-09-09T08:06:52;4.60;;;1.45;;
13051;SDS011;6592;47.484;9.726;2022-09-09T08:09:22;3.40;;;1.37;;
13051;SDS011;6592;47.484;9.726;2022-09-09T08:11:55;4.75;;;1.45;;
13051;SDS011;6592;47.484;9.726;2022-09-09T08:14:24;4.40;;;1.58;;
13051;SDS011;6592;47.484;9.726;2022-09-09T08:16:54;4.38;;;1.35;;
13051;SDS011;6592;47.484;9.726;2022-09-09T08:19:23;5.13;;;1.50;;
13051;SDS011;6592;47.484;9.726;2022-09-09T08:21:52;3.50;;;1.30;;
13051;SDS011;6592;47.484;9.726;2022-09-09T08:24:21;3.20;;;1.50;;
13051;SDS011;6592;47.484;9.726;2022-09-09T08:26:51;4.80;;;1.27;;
13051;SDS011;6592;47.484;9.726;2022-09-09T08:29:20;2.65;;;1.23;;
13051;SDS011;6592;47.484;9.726;2022-09-09T08:31:49;2.78;;;1.25;;
13051;SDS011;6592;47.484;9.726;2022-09-09T08:34:19;6.82;;;1.50;;
13051;SDS011;6592;47.484;9.726;2022-09-09T08:36:49;3.90;;;1.23;;
13051;SDS011;6592;47.484;9.726;2022-09-09T08:39:19;5.22;;;1.50;;
13051;SDS011;6592;47.484;9.726;2022-09-09T08:41:55;5.60;;;1.45;;
13051;SDS011;6592;47.484;9.726;2022-09-09T08:44:44;3.90;;;1.40;;
13051;SDS011;6592;47.484;9.726;2022-09-09T08:47:25;3.83;;;1.20;;
13051;SDS011;6592;47.484;9.726;2022-09-09T08:50:04;5.00;;;1.30;;
13051;SDS011;6592;47.484;9.726;2022-09-09T08:52:42;5.68;;;1.50;;
13051;SDS011;6592;47.484;9.726;2022-09-09T08:55:21;5.18;;;1.52;;
13051;SDS011;6592;47.484;9.726;2022-09-09T08:57:59;3.28;;;1.08;;
13051;SDS011;6592;47.484;9.726;2022-09-09T09:00:36;4.90;;;1.42;;
13051;SDS011;6592;47.484;9.726;2022-09-09T09:03:14;5.63;;;1.42;;
13051;SDS011;6592;47.484;9.726;2022-09-09T09:05:51;4.28;;;1.20;;
13051;SDS011;6592;47.484;9.726;2022-09-09T09:08:29;5.13;;;1.65;;
13051;SDS011;6592;47.484;9.726;2022-09-09T09:11:04;5.25;;;1.40;;
13051;SDS011;6592;47.484;9.726;2022-09-09T09:13:38;4.05;;;2.08;;
13051;SDS011;6592;47.484;9.726;2022-09-09T09:16:18;5.13;;;1.30;;
13051;SDS011;6592;47.484;9.726;2022-09-09T09:18:51;3.83;;;1.40;;
13051;SDS011;6592;47.484;9.726;2022-09-09T09:21:24;4.55;;;1.35;;
13051;SDS011;6592;47.484;9.726;2022-09-09T09:24:03;3.33;;;1.30;;
13051;SDS011;6592;47.484;9.726;2022-09-09T09:26:46;6.32;;;1.38;;
13051;SDS011;6592;47.484;9.726;2022-09-09T09:29:18;5.38;;;1.67;;
13051;SDS011;6592;47.484;9.726;2022-09-09T09:31:48;4.30;;;1.40;;
13051;SDS011;6592;47.484;9.726;2022-09-09T09:34:21;6.40;;;1.80;;
13051;SDS011;6592;47.484;9.726;2022-09-09T09:36:52;4.65;;;1.50;;
13051;SDS011;6592;47.484;9.726;2022-09-09T09:39:24;5.97;;;1.73;;
13051;SDS011;6592;47.484;9.726;2022-09-09T09:42:15;3.30;;;1.27;;
13051;SDS011;6592;47.484;9.726;2022-09-09T09:44:50;2.90;;;1.17;;
13051;SDS011;6592;47.484;9.726;2022-09-09T09:47:20;5.63;;;1.70;;
13051;SDS011;6592;47.484;9.726;2022-09-09T09:49:53;3.90;;;1.40;;
13051;SDS011;6592;47.484;9.726;2022-09-09T09:52:22;3.33;;;1.23;;
13051;SDS011;6592;47.484;9.726;2022-09-09T09:54:52;3.72;;;1.20;;
13051;SDS011;6592;47.484;9.726;2022-09-09T09:57:23;3.70;;;1.30;;
13051;SDS011;6592;47.484;9.726;2022-09-09T10:00:11;3.83;;;1.25;;
13051;SDS011;6592;47.484;9.726;2022-09-09T10:02:42;4.80;;;1.40;;
13051;SDS011;6592;47.484;9.726;2022-09-09T10:05:15;3.80;;;1.45;;
13051;SDS011;6592;47.484;9.726;2022-09-09T10:08:01;4.50;;;1.50;;
13051;SDS011;6592;47.484;9.726;2022-09-09T10:10:38;4.10;;;1.60;;
13051;SDS011;6592;47.484;9.726;2022-09-09T10:13:15;7.43;;;1.50;;
13051;SDS011;6592;47.484;9.726;2022-09-09T10:15:56;4.45;;;1.30;;
13051;SDS011;6592;47.484;9.726;2022-09-09T10:18:36;3.00;;;1.10;;
13051;SDS011;6592;47.484;9.726;2022-09-09T10:21:19;4.32;;;1.35;;
13051;SDS011;6592;47.484;9.726;2022-09-09T10:24:09;3.95;;;1.27;;
13051;SDS011;6592;47.484;9.726;2022-09-09T10:27:00;3.22;;;1.30;;
13051;SDS011;6592;47.484;9.726;2022-09-09T10:29:37;5.10;;;1.17;;
13051;SDS011;6592;47.484;9.726;2022-09-09T10:32:30;3.67;;;0.80;;
13051;SDS011;6592;47.484;9.726;2022-09-09T10:35:09;3.67;;;0.88;;
13051;SDS011;6592;47.484;9.726;2022-09-09T10:37:43;3.08;;;1.00;;
13051;SDS011;6592;47.484;9.726;2022-09-09T10:40:26;3.15;;;1.00;;
13051;SDS011;6592;47.484;9.726;2022-09-09T10:43:02;1.80;;;0.70;;
13051;SDS011;6592;47.484;9.726;2022-09-09T10:45:39;2.45;;;0.90;;
13051;SDS011;6592;47.484;9.726;2022-09-09T10:48:21;2.47;;;0.90;;
13051;SDS011;6592;47.484;9.726;2022-09-09T10:51:10;4.00;;;0.80;;
13051;SDS011;6592;47.484;9.726;2022-09-09T10:53:52;3.75;;;0.90;;
13051;SDS011;6592;47.484;9.726;2022-09-09T10:56:34;2.90;;;0.90;;
13051;SDS011;6592;47.484;9.726;2022-09-09T10:59:04;3.63;;;0.80;;
13051;SDS011;6592;47.484;9.726;2022-09-09T11:01:40;2.80;;;0.90;;
13051;SDS011;6592;47.484;9.726;2022-09-09T11:04:15;3.20;;;0.90;;
13051;SDS011;6592;47.484;9.726;2022-09-09T11:06:51;2.95;;;0.85;;
13051;SDS011;6592;47.484;9.726;2022-09-09T11:09:23;3.17;;;1.05;;
13051;SDS011;6592;47.484;9.726;2022-09-09T11:11:55;1.92;;;0.60;;
13051;SDS011;6592;47.484;9.726;2022-09-09T11:14:27;3.28;;;1.00;;
13051;SDS011;6592;47.484;9.726;2022-09-09T11:17:03;3.28;;;0.80;;
13051;SDS011;6592;47.484;9.726;2022-09-09T11:19:39;3.35;;;0.80;;
13051;SDS011;6592;47.484;9.726;2022-09-09T11:22:14;3.65;;;0.82;;
13051;SDS011;6592;47.484;9.726;2022-09-09T11:24:48;3.15;;;0.80;;
13051;SDS011;6592;47.484;9.726;2022-09-09T11:27:21;2.03;;;0.70;;
13051;SDS011;6592;47.484;9.726;2022-09-09T11:30:02;2.63;;;0.68;;
13051;SDS011;6592;47.484;9.726;2022-09-09T11:33:08;2.13;;;0.77;;
13051;SDS011;6592;47.484;9.726;2022-09-09T11:35:57;2.95;;;0.90;;
13051;SDS011;6592;47.484;9.726;2022-09-09T11:38:42;3.90;;;0.88;;
13051;SDS011;6592;47.484;9.726;2022-09-09T11:41:14;1.52;;;0.60;;
13051;SDS011;6592;47.484;9.726;2022-09-09T11:43:47;4.55;;;0.70;;
13051;SDS011;6592;47.484;9.726;2022-09-09T11:46:19;2.05;;;0.80;;
13051;SDS011;6592;47.484;9.726;2022-09-09T11:48:57;3.28;;;0.82;;
13051;SDS011;6592;47.484;9.726;2022-09-09T11:51:29;5.15;;;1.10;;
13051;SDS011;6592;47.484;9.726;2022-09-09T11:53:59;5.25;;;1.33;;
13051;SDS011;6592;47.484;9.726;2022-09-09T11:56:30;5.72;;;1.33;;
13051;SDS011;6592;47.484;9.726;2022-09-09T11:59:01;9.50;;;1.17;;
13051;SDS011;6592;47.484;9.726;2022-09-09T12:01:35;3.75;;;1.00;;
13051;SDS011;6592;47.484;9.726;2022-09-09T12:04:13;4.20;;;1.05;;
13051;SDS011;6592;47.484;9.726;2022-09-09T12:06:58;4.65;;;1.13;;
13051;SDS011;6592;47.484;9.726;2022-09-09T12:09:38;2.30;;;0.90;;
13051;SDS011;6592;47.484;9.726;2022-09-09T12:12:25;3.72;;;0.90;;
13051;SDS011;6592;47.484;9.726;2022-09-09T12:15:15;3.30;;;1.00;;
13051;SDS011;6592;47.484;9.726;2022-09-09T12:17:55;3.60;;;0.90;;
13051;SDS011;6592;47.484;9.726;2022-09-09T12:20:31;2.92;;;0.82;;
13051;SDS011;6592;47.484;9.726;2022-09-09T12:26:25;1.85;;;0.90;;
13051;SDS011;6592;47.484;9.726;2022-09-09T12:29:02;3.25;;;0.80;;
13051;SDS011;6592;47.484;9.726;2022-09-09T12:31:39;1.92;;;0.73;;
13051;SDS011;6592;47.484;9.726;2022-09-09T12:34:16;3.38;;;0.80;;
13051;SDS011;6592;47.484;9.726;2022-09-09T12:36:54;4.05;;;1.08;;
13051;SDS011;6592;47.484;9.726;2022-09-09T12:39:31;4.15;;;1.00;;
13051;SDS011;6592;47.484;9.726;2022-09-09T12:42:03;3.85;;;1.05;;
13051;SDS011;6592;47.484;9.726;2022-09-09T12:44:32;3.85;;;0.90;;
13051;SDS011;6592;47.484;9.726;2022-09-09T12:47:01;4.25;;;0.82;;
13051;SDS011;6592;47.484;9.726;2022-09-09T12:49:32;1.87;;;0.77;;
13051;SDS011;6592;47.484;9.726;2022-09-09T12:52:06;3.67;;;0.85;;
13051;SDS011;6592;47.484;9.726;2022-09-09T12:54:42;3.40;;;1.05;;
13051;SDS011;6592;47.484;9.726;2022-09-09T12:57:14;2.50;;;0.88;;
13051;SDS011;6592;47.484;9.726;2022-09-09T12:59:43;3.03;;;1.00;;
13051;SDS011;6592;47.484;9.726;2022-09-09T13:02:19;3.45;;;1.10;;
13051;SDS011;6592;47.484;9.726;2022-09-09T13:04:50;3.35;;;1.00;;
13051;SDS011;6592;47.484;9.726;2022-09-09T13:07:19;2.30;;;0.90;;
13051;SDS011;6592;47.484;9.726;2022-09-09T13:09:50;2.58;;;1.00;;
13051;SDS011;6592;47.484;9.726;2022-09-09T13:12:19;4.40;;;1.10;;
13051;SDS011;6592;47.484;9.726;2022-09-09T13:14:50;5.18;;;1.20;;
13051;SDS011;6592;47.484;9.726;2022-09-09T13:17:22;3.20;;;0.80;;
13051;SDS011;6592;47.484;9.726;2022-09-09T13:19:53;5.57;;;0.80;;
13051;SDS011;6592;47.484;9.726;2022-09-09T13:22:24;2.38;;;0.90;;
13051;SDS011;6592;47.484;9.726;2022-09-09T13:25:02;2.95;;;0.88;;
13051;SDS011;6592;47.484;9.726;2022-09-09T13:27:34;3.30;;;1.05;;
13051;SDS011;6592;47.484;9.726;2022-09-09T13:30:19;2.88;;;0.70;;
13051;SDS011;6592;47.484;9.726;2022-09-09T13:33:00;2.65;;;0.73;;
13051;SDS011;6592;47.484;9.726;2022-09-09T13:35:34;4.15;;;0.90;;
13051;SDS011;6592;47.484;9.726;2022-09-09T13:38:07;2.22;;;0.80;;
13051;SDS011;6592;47.484;9.726;2022-09-09T13:40:38;2.28;;;0.70;;
13051;SDS011;6592;47.484;9.726;2022-09-09T13:43:10;3.25;;;0.75;;
13051;SDS011;6592;47.484;9.726;2022-09-09T13:45:54;2.60;;;0.68;;
13051;SDS011;6592;47.484;9.726;2022-09-09T13:48:24;1.85;;;0.50;;
13051;SDS011;6592;47.484;9.726;2022-09-09T13:50:54;2.15;;;0.80;;
13051;SDS011;6592;47.484;9.726;2022-09-09T13:53:27;2.22;;;0.60;;
13051;SDS011;6592;47.484;9.726;2022-09-09T13:55:58;2.35;;;0.60;;
13051;SDS011;6592;47.484;9.726;2022-09-09T13:58:27;2.17;;;0.73;;
13051;SDS011;6592;47.484;9.726;2022-09-09T14:00:56;2.83;;;0.75;;
13051;SDS011;6592;47.484;9.726;2022-09-09T14:03:25;1.88;;;0.70;;
13051;SDS011;6592;47.484;9.726;2022-09-09T14:05:53;2.05;;;0.73;;
13051;SDS011;6592;47.484;9.726;2022-09-09T14:08:23;2.72;;;0.65;;
13051;SDS011;6592;47.484;9.726;2022-09-09T14:10:55;3.25;;;0.70;;
13051;SDS011;6592;47.484;9.726;2022-09-09T14:13:27;3.63;;;0.70;;
13051;SDS011;6592;47.484;9.726;2022-09-09T14:15:56;1.08;;;0.43;;
13051;SDS011;6592;47.484;9.726;2022-09-09T14:18:25;3.10;;;0.70;;
13051;SDS011;6592;47.484;9.726;2022-09-09T14:20:54;4.03;;;0.70;;
13051;SDS011;6592;47.484;9.726;2022-09-09T14:23:23;2.60;;;0.70;;
13051;SDS011;6592;47.484;9.726;2022-09-09T14:25:52;3.30;;;0.60;;
13051;SDS011;6592;47.484;9.726;2022-09-09T14:28:21;2.65;;;0.65;;
13051;SDS011;6592;47.484;9.726;2022-09-09T14:31:12;2.50;;;0.70;;
13051;SDS011;6592;47.484;9.726;2022-09-09T14:33:41;2.55;;;0.55;;
13051;SDS011;6592;47.484;9.726;2022-09-09T14:36:10;2.10;;;0.63;;
13051;SDS011;6592;47.484;9.726;2022-09-09T14:38:39;1.98;;;0.70;;
13051;SDS011;6592;47.484;9.726;2022-09-09T14:41:09;2.47;;;0.50;;
13051;SDS011;6592;47.484;9.726;2022-09-09T14:43:39;1.70;;;0.40;;
13051;SDS011;6592;47.484;9.726;2022-09-09T14:46:08;1.45;;;0.52;;
13051;SDS011;6592;47.484;9.726;2022-09-09T14:48:39;2.15;;;0.60;;
13051;SDS011;6592;47.484;9.726;2022-09-09T14:51:08;1.80;;;0.60;;
13051;SDS011;6592;47.484;9.726;2022-09-09T14:53:39;1.75;;;0.50;;
13051;SDS011;6592;47.484;9.726;2022-09-09T14:56:08;2.10;;;0.50;;
13051;SDS011;6592;47.484;9.726;2022-09-09T14:58:39;2.95;;;0.52;;
13051;SDS011;6592;47.484;9.726;2022-09-09T15:01:08;3.75;;;0.60;;
13051;SDS011;6592;47.484;9.726;2022-09-09T15:03:40;1.63;;;0.43;;
13051;SDS011;6592;47.484;9.726;2022-09-09T15:06:12;1.75;;;0.63;;
13051;SDS011;6592;47.484;9.726;2022-09-09T15:08:42;2.35;;;0.60;;
13051;SDS011;6592;47.484;9.726;2022-09-09T15:11:12;3.00;;;0.70;;
13051;SDS011;6592;47.484;9.726;2022-09-09T15:13:43;1.77;;;0.63;;
13051;SDS011;6592;47.484;9.726;2022-09-09T15:16:14;1.60;;;0.60;;
13051;SDS011;6592;47.484;9.726;2022-09-09T15:18:46;1.95;;;0.60;;
13051;SDS011;6592;47.484;9.726;2022-09-09T15:21:20;1.80;;;0.50;;
13051;SDS011;6592;47.484;9.726;2022-09-09T15:23:50;3.35;;;0.60;;
13051;SDS011;6592;47.484;9.726;2022-09-09T15:26:19;1.42;;;0.55;;
13051;SDS011;6592;47.484;9.726;2022-09-09T15:28:48;1.58;;;0.45;;
13051;SDS011;6592;47.484;9.726;2022-09-09T15:31:18;1.73;;;0.60;;
13051;SDS011;6592;47.484;9.726;2022-09-09T15:33:49;3.22;;;1.13;;
13051;SDS011;6592;47.484;9.726;2022-09-09T15:36:19;2.22;;;0.77;;
13051;SDS011;6592;47.484;9.726;2022-09-09T15:38:49;4.47;;;1.70;;
13051;SDS011;6592;47.484;9.726;2022-09-09T15:41:19;1.88;;;1.05;;
13051;SDS011;6592;47.484;9.726;2022-09-09T15:43:50;2.22;;;0.80;;